Terminal Aerodrome Forecast
Issued by NWS Quad Cities IA IL

Home | Current Version | Previous Version | Text Only | Print | Product List | Glossary On
Versions: 1 2 3 4 5 6 7 8 9 10 11 12 13 14 15 16 17 18 19 20
000
FTUS43 KDVN 172300 RRA
TAFDBQ
TAF
KDBQ 172346Z 1800/1824 07004KT P6SM SKC
     FM180600 10003KT 4SM BR SCT050
     FM180900 12003KT 1SM BR SCT008
      TEMPO 1809/1813 1/2SM FG VV003
     FM181400 15004KT 5SM BR BKN015
     FM181700 17007KT P6SM BKN025
     FM182000 20010KT P6SM BKN035 PROB30 1820/1824 5SM -TSRA BR
      BKN020CB=

USA.gov is the U.S. government's official web portal to all federal, state and local government web resources and services.